Nord Copenhagen — 3FNV7 — position and weather

sailwx.info

Track history (hours):
 
Tides and Currents Weather Stations Pressure Air Temp Water Temp Dewpoint Dewpoint Depression Visibility Wind Speed Wind Dir Waves Ship Positions

Nord Copenhagen

Last reported at 2018-Jan-28 22:21 UTC. Time now 2018-Feb-21 09:36 UTC.
Position N 28°10' W 016°11'.
Warning: this ship's position is 23 days out of date.

Length 177 m; draft 6.7 m.

Type: Cargo ship. MMSI: 373334000.

Date/timePositionNaut miles runAvg speedWind from/ knotsBaromVisibWave heightAir tempDewpointWater temp
2018-Jan-28 22:21N 28°10' W 016°11'513.2
2018-Jan-28 22:00N 28°14' W 016°08'612.8
2018-Jan-28 21:30N 28°19' W 016°03'612.7
2018-Jan-28 21:00N 28°24' W 015°58'612.9
2018-Jan-28 20:30N 28°29' W 015°54'612.8
2018-Jan-28 20:00N 28°33' W 015°49'612.7
2018-Jan-28 19:30N 28°38' W 015°44'612.9
2018-Jan-28 19:00N 28°42' W 015°38'712.8
2018-Jan-28 18:29N 28°47' W 015°33'613.1
2018-Jan-28 18:00N 28°51' W 015°28'812.9
2018-Jan-28 17:25N 28°56' W 015°21'  
2018-Jan-26 07:41N 36°07' W 005°22'0 0.1
2018-Jan-26 07:18N 36°07' W 005°22'0 0.0
2018-Jan-26 06:41N 36°07' W 005°22'0 0.1
2018-Jan-26 06:29N 36°07' W 005°22'0 0.2
2018-Jan-26 05:59N 36°08' W 005°22'0 0.0
2018-Jan-26 05:29N 36°07' W 005°22'0 0.1
2018-Jan-26 05:00N 36°07' W 005°22'0 0.0
2018-Jan-26 04:25N 36°07' W 005°22'0 0.0
2018-Jan-26 04:00N 36°07' W 005°22'0 0.0
2018-Jan-26 03:30N 36°07' W 005°22'0 0.0
2018-Jan-26 03:00N 36°07' W 005°22'0 0.6
2018-Jan-26 02:27N 36°07' W 005°22'2 4.7
2018-Jan-26 02:00N 36°05' W 005°21'3 6.2
2018-Jan-26 01:30N 36°05' W 005°17'3 6.5
2018-Jan-26 01:00N 36°07' W 005°14'5 2.7
2018-Jan-25 23:00N 36°12' W 005°10'1 1.2
2018-Jan-25 22:07N 36°12' W 005°11'0 1.0
2018-Jan-25 21:51N 36°11' W 005°11'7 1.0
2018-Jan-25 15:13N 36°05' W 005°13'2 7.3
2018-Jan-25 14:59N 36°04' W 005°14'  
Track history (hours):
 
Tides and Currents Weather Stations Pressure Air Temp Water Temp Dewpoint Dewpoint Depression Visibility Wind Speed Wind Dir Waves Ship Positions

Nord Copenhagen

Last reported at 2018-Jan-28 22:21 UTC. Time now 2018-Feb-21 09:36 UTC.
Position N 28°10' W 016°11'.
Warning: this ship's position is 23 days out of date.

Length 177 m; draft 6.7 m.

Type: Cargo ship. MMSI: 373334000.

Date/timePositionNaut miles runAvg speedWind from/ knotsBaromVisibWave heightAir tempDewpointWater temp
2018-Jan-28 22:21N 28°10' W 016°11'513.2
2018-Jan-28 22:00N 28°14' W 016°08'612.8
2018-Jan-28 21:30N 28°19' W 016°03'612.7
2018-Jan-28 21:00N 28°24' W 015°58'612.9
2018-Jan-28 20:30N 28°29' W 015°54'612.8
2018-Jan-28 20:00N 28°33' W 015°49'612.7
2018-Jan-28 19:30N 28°38' W 015°44'612.9
2018-Jan-28 19:00N 28°42' W 015°38'712.8
2018-Jan-28 18:29N 28°47' W 015°33'613.1
2018-Jan-28 18:00N 28°51' W 015°28'812.9
2018-Jan-28 17:25N 28°56' W 015°21'  
2018-Jan-26 07:41N 36°07' W 005°22'0 0.1
2018-Jan-26 07:18N 36°07' W 005°22'0 0.0
2018-Jan-26 06:41N 36°07' W 005°22'0 0.1
2018-Jan-26 06:29N 36°07' W 005°22'0 0.2
2018-Jan-26 05:59N 36°08' W 005°22'0 0.0
2018-Jan-26 05:29N 36°07' W 005°22'0 0.1
2018-Jan-26 05:00N 36°07' W 005°22'0 0.0
2018-Jan-26 04:25N 36°07' W 005°22'0 0.0
2018-Jan-26 04:00N 36°07' W 005°22'0 0.0
2018-Jan-26 03:30N 36°07' W 005°22'0 0.0
2018-Jan-26 03:00N 36°07' W 005°22'0 0.6
2018-Jan-26 02:27N 36°07' W 005°22'2 4.7
2018-Jan-26 02:00N 36°05' W 005°21'3 6.2
2018-Jan-26 01:30N 36°05' W 005°17'3 6.5
2018-Jan-26 01:00N 36°07' W 005°14'5 2.7
2018-Jan-25 23:00N 36°12' W 005°10'1 1.2
2018-Jan-25 22:07N 36°12' W 005°11'0 1.0
2018-Jan-25 21:51N 36°11' W 005°11'7 1.0
2018-Jan-25 15:13N 36°05' W 005°13'2 7.3
2018-Jan-25 14:59N 36°04' W 005°14'  

Dump ship's entire track history